Ali Cat — MZCL8 — position and weather

sailwx.info

Track history (hours):
 
Tides and Currents Weather Stations Pressure Air Temp Water Temp Dewpoint Dewpoint Depression Visibility Wind Speed Wind Dir Waves Ship Positions

Ali Cat

Operator: MRCC Clyde

Last reported at 2018-Oct-20 11:35 UTC. Time now 2018-Oct-20 12:59 UTC.
Position N 55°57' W 004°51'.

Length 19 m.

Type: Passenger vessel. MMSI: 235056506.

Date/timePositionNaut miles runAvg speedWind from/ knotsBaromVisibWave heightAir tempDewpointWater temp
2018-Oct-20 11:35N 55°57' W 004°51'110.2
2018-Oct-20 11:30N 55°57' W 004°53'0 0.3
2018-Oct-20 10:32N 55°57' W 004°52'110.5
2018-Oct-20 10:28N 55°57' W 004°53'0 0.4
2018-Oct-20 09:30N 55°57' W 004°53'1 0.9
2018-Oct-20 08:36N 55°58' W 004°51'210.4
2018-Oct-20 08:26N 55°57' W 004°54'0 0.1
2018-Oct-20 07:26N 55°57' W 004°54'1 1.5
2018-Oct-20 06:30N 55°57' W 004°52'1 0.1
2018-Oct-19 20:57N 55°58' W 004°50'2 4.9
2018-Oct-19 20:30N 55°57' W 004°54'2 2.6
2018-Oct-19 19:37N 55°58' W 004°50'210.5
2018-Oct-19 19:27N 55°57' W 004°53'0 0.3
2018-Oct-19 18:29N 55°57' W 004°53'1 1.6
2018-Oct-19 17:37N 55°58' W 004°50'110.7
2018-Oct-19 17:30N 55°57' W 004°52'1 1.7
2018-Oct-19 16:39N 55°58' W 004°50'210.7
2018-Oct-19 16:30N 55°57' W 004°52'0 1.0
2018-Oct-19 16:01N 55°58' W 004°52'0 0.6
2018-Oct-19 15:33N 55°57' W 004°51'111.1
2018-Oct-19 15:29N 55°57' W 004°53'1 0.9
2018-Oct-19 14:06N 55°58' W 004°51'0 0.2
2018-Oct-19 13:07N 55°58' W 004°50'110.8
2018-Oct-19 13:02N 55°58' W 004°52'111.3
2018-Oct-19 12:55N 55°57' W 004°54'1 1.0
2018-Oct-19 11:33N 55°58' W 004°52'111.6
2018-Oct-19 11:27N 55°57' W 004°54'1 2.6
2018-Oct-19 11:03N 55°58' W 004°52'0 0.4
2018-Oct-19 10:32N 55°58' W 004°52'011.8
2018-Oct-19 10:30N 55°57' W 004°52'0 0.0
2018-Oct-19 09:30N 55°57' W 004°52'1 1.4
2018-Oct-19 08:37N 55°58' W 004°50'211.1
2018-Oct-19 08:26N 55°57' W 004°54'0 0.0
2018-Oct-19 07:26N 55°57' W 004°54'2 2.0
2018-Oct-19 06:30N 55°58' W 004°51'0 0.0
2018-Oct-18 20:56N 55°58' W 004°51'2 4.1
2018-Oct-18 20:28N 55°57' W 004°54'1 1.0
2018-Oct-18 19:30N 55°57' W 004°53'2 1.8
2018-Oct-18 18:38N 55°58' W 004°50'210.4
2018-Oct-18 18:29N 55°57' W 004°53'2 1.9
2018-Oct-18 17:39N 55°58' W 004°50'210.5
2018-Oct-18 17:30N 55°57' W 004°53'1 1.2
2018-Oct-18 16:36N 55°58' W 004°51'210.5
2018-Oct-18 16:25N 55°57' W 004°54'1 0.8
2018-Oct-18 15:28N 55°57' W 004°53'0 0.1
2018-Oct-18 11:32N 55°57' W 004°52'110.1
2018-Oct-18 11:25N 55°57' W 004°54'2 4.1
2018-Oct-18 11:02N 55°58' W 004°52'1 1.4
2018-Oct-18 10:40N 55°58' W 004°51'2 9.9
2018-Oct-18 10:30N 55°57' W 004°53'2 3.1
2018-Oct-18 09:43N 55°58' W 004°49'2 9.9
2018-Oct-18 09:30N 55°57' W 004°53'1 0.6
2018-Oct-18 08:32N 55°57' W 004°52'010.0
2018-Oct-18 08:30N 55°57' W 004°52'1 0.6
2018-Oct-18 07:34N 55°57' W 004°51'110.0
2018-Oct-18 07:29N 55°57' W 004°53'2 2.3
2018-Oct-18 06:36N 55°58' W 004°49'110.0
2018-Oct-18 06:30N 55°57' W 004°51'1 2.6
2018-Oct-18 06:01N 55°57' W 004°53'110.6
2018-Oct-18 05:54N 55°58' W 004°51'0 0.0
2018-Oct-17 20:55N 55°57' W 004°51'0 0.1
2018-Oct-17 19:34N 55°57' W 004°51'110.5
2018-Oct-17 19:29N 55°57' W 004°53'1 0.8
2018-Oct-17 18:33N 55°57' W 004°51'110.3
2018-Oct-17 18:30N 55°57' W 004°52'1 1.6
2018-Oct-17 17:59N 55°58' W 004°51'1 1.9
2018-Oct-17 17:29N 55°57' W 004°53'1 1.5
2018-Oct-17 16:37N 55°58' W 004°51'110.3
2018-Oct-17 16:30N 55°57' W 004°53'0 0.5
2018-Oct-17 15:32N 55°57' W 004°52'110.7
2018-Oct-17 15:29N 55°57' W 004°53'0 0.1
2018-Oct-17 13:59N 55°57' W 004°53'1 0.9
2018-Oct-17 13:03N 55°57' W 004°51'111.1
2018-Oct-17 13:00N 55°57' W 004°52'0 0.3
2018-Oct-17 11:32N 55°58' W 004°52'010.6
2018-Oct-17 11:30N 55°57' W 004°52'1 1.1
2018-Oct-17 10:59N 55°58' W 004°52'1 2.1
2018-Oct-17 10:27N 55°57' W 004°53'1 2.8
2018-Oct-17 09:59N 55°58' W 004°51'1 1.8
2018-Oct-17 09:30N 55°57' W 004°53'1 1.2
2018-Oct-17 09:01N 55°58' W 004°52'010.6
2018-Oct-17 08:58N 55°58' W 004°51'1 0.1
2018-Oct-16 20:49N 55°57' W 004°53'1 0.5
2018-Oct-16 18:36N 55°58' W 004°51'211.3
2018-Oct-16 18:25N 55°57' W 004°54'2 2.0
2018-Oct-16 17:36N 55°58' W 004°51'211.3
2018-Oct-16 17:27N 55°57' W 004°54'1 0.6
2018-Oct-16 16:30N 55°57' W 004°53'2 0.4
2018-Oct-16 10:41N 55°58' W 004°49'211.4
2018-Oct-16 10:30N 55°57' W 004°53'1 1.2
2018-Oct-16 10:03N 55°58' W 004°52'1 1.9
2018-Oct-16 09:37N 55°58' W 004°51'210.3
2018-Oct-16 09:26N 55°57' W 004°54'2 2.8
2018-Oct-16 08:38N 55°58' W 004°50'210.0
2018-Oct-16 08:29N 55°57' W 004°53'1 1.2
2018-Oct-16 08:03N 55°58' W 004°53'1 1.2
2018-Oct-16 07:33N 55°57' W 004°52'010.1
2018-Oct-16 07:30N 55°57' W 004°53'1 1.6
2018-Oct-16 06:59N 55°58' W 004°51'0 0.9
2018-Oct-16 06:28N 55°57' W 004°52'1 3.0
2018-Oct-16 06:03N 55°57' W 004°54'1 0.1
2018-Oct-15 20:51N 55°57' W 004°52'2 5.0
2018-Oct-15 20:30N 55°57' W 004°55'3 3.1
2018-Oct-15 19:37N 55°58' W 004°50'210.4
2018-Oct-15 19:27N 55°57' W 004°53'1 2.7
2018-Oct-15 19:00N 55°58' W 004°51'1 2.0
2018-Oct-15 18:29N 55°57' W 004°53'2 1.6
2018-Oct-15 17:13N 55°58' W 004°49'210.0
2018-Oct-15 17:02N 55°57' W 004°52'010.0
2018-Oct-15 16:59N 55°57' W 004°53'1 1.1
2018-Oct-15 16:04N 55°57' W 004°51'010.3
2018-Oct-15 16:02N 55°57' W 004°52'010.1
2018-Oct-15 16:00N 55°57' W 004°53'1 1.0
2018-Oct-15 15:05N 55°57' W 004°51'010.2
2018-Oct-15 15:02N 55°57' W 004°52'210.0
2018-Oct-15 14:52N 55°57' W 004°55'2 1.9
2018-Oct-15 14:02N 55°57' W 004°52'110.0
2018-Oct-15 13:57N 55°57' W 004°54'1 0.7
2018-Oct-15 12:05N 55°57' W 004°51'010.1
2018-Oct-15 12:03N 55°57' W 004°52'0 9.9
2018-Oct-15 12:00N 55°57' W 004°53'1 2.0
2018-Oct-15 11:29N 55°58' W 004°51'1 2.7
2018-Oct-15 10:57N 55°57' W 004°53'2 3.0
2018-Oct-15 10:11N 55°58' W 004°49'110.5
2018-Oct-15 10:03N 55°57' W 004°52'110.4
2018-Oct-15 09:56N 55°57' W 004°54'2 2.9
2018-Oct-15 09:09N 55°58' W 004°50'210.2
2018-Oct-15 08:59N 55°57' W 004°53'0 0.1
2018-Oct-15 08:01N 55°57' W 004°53'1 9.6
2018-Oct-15 07:54N 55°57' W 004°54'3 3.5
2018-Oct-15 07:10N 55°58' W 004°50'1 9.8
2018-Oct-15 07:03N 55°57' W 004°52'1 9.8
2018-Oct-15 07:00N 55°57' W 004°53'1 1.1
2018-Oct-15 06:02N 55°57' W 004°51'1 9.7
2018-Oct-15 05:55N 55°57' W 004°53'1 0.1
2018-Oct-14 22:00N 55°57' W 004°51'1 0.6
2018-Oct-14 21:00N 55°57' W 004°52'1 1.5
2018-Oct-14 20:08N 55°58' W 004°50'110.2
2018-Oct-14 20:01N 55°57' W 004°52'010.0
2018-Oct-14 20:00N 55°57' W 004°52'0 0.1
2018-Oct-14 18:59N 55°57' W 004°53'1 0.9
2018-Oct-14 18:04N 55°57' W 004°51'010.2
2018-Oct-14 18:03N 55°57' W 004°51'0 9.9
2018-Oct-14 18:00N 55°57' W 004°52'1 1.7
2018-Oct-14 17:27N 55°58' W 004°51'1 2.2
2018-Oct-14 17:01N 55°57' W 004°52'1 9.8
2018-Oct-14 16:57N 55°57' W 004°54'0 0.4
2018-Oct-14 15:58N 55°57' W 004°53'2 1.8
2018-Oct-14 15:07N 55°58' W 004°51'110.6
2018-Oct-14 14:59N 55°57' W 004°53'0 0.5
2018-Oct-14 14:03N 55°57' W 004°52'010.8
2018-Oct-14 14:00N 55°57' W 004°53'1 0.4
2018-Oct-14 11:06N 55°58' W 004°51'110.2
2018-Oct-14 10:59N 55°57' W 004°53'1 1.9
2018-Oct-14 10:30N 55°58' W 004°51'1 1.3
2018-Oct-14 10:00N 55°57' W 004°52'1 0.9
2018-Oct-14 09:06N 55°58' W 004°51'110.5
2018-Oct-14 09:00N 55°57' W 004°53'1 1.2
2018-Oct-14 08:06N 55°58' W 004°51'110.6
2018-Oct-14 08:02N 55°57' W 004°52'110.3
2018-Oct-14 07:58N 55°57' W 004°53'1 0.2
2018-Oct-14 00:36N 55°57' W 004°51'112.1
2018-Oct-14 00:30N 55°57' W 004°53'1 0.6
2018-Oct-13 23:22N 55°57' W 004°52'2 6.6
2018-Oct-13 23:03N 55°57' W 004°55'0 5.6
2018-Oct-13 23:00N 55°57' W 004°55'2 3.6
2018-Oct-13 22:23N 55°58' W 004°51'2 6.6
2018-Oct-13 22:02N 55°57' W 004°55'011.1
2018-Oct-13 22:00N 55°57' W 004°54'1 2.2
2018-Oct-13 21:21N 55°57' W 004°52'2 6.6
2018-Oct-13 21:02N 55°57' W 004°55'0 3.7
2018-Oct-13 21:00N 55°57' W 004°55'1 1.0
2018-Oct-13 19:56N 55°57' W 004°53'0 0.2
2018-Oct-13 18:58N 55°57' W 004°53'1 0.9
2018-Oct-13 18:03N 55°57' W 004°52'110.1
2018-Oct-13 17:57N 55°57' W 004°53'1 1.0
2018-Oct-13 17:03N 55°57' W 004°52'0 9.9
2018-Oct-13 17:00N 55°57' W 004°53'0 0.3
2018-Oct-13 15:58N 55°57' W 004°53'1 1.7
2018-Oct-13 15:06N 55°57' W 004°51'2 9.8
2018-Oct-13 14:55N 55°57' W 004°54'1 1.7
2018-Oct-13 14:03N 55°57' W 004°51'110.1
2018-Oct-13 13:59N 55°57' W 004°53'0 0.4
2018-Oct-13 13:02N 55°57' W 004°52'0 9.9
2018-Oct-13 13:00N 55°57' W 004°53'1 1.2
2018-Oct-13 12:07N 55°58' W 004°51'2 9.5
2018-Oct-13 11:56N 55°57' W 004°54'3 3.5
2018-Oct-13 11:12N 55°58' W 004°49'2 9.5
2018-Oct-13 10:58N 55°57' W 004°53'2 2.6
2018-Oct-13 10:11N 55°58' W 004°50'110.0
2018-Oct-13 10:03N 55°57' W 004°52'210.0
2018-Oct-13 09:54N 55°57' W 004°54'1 1.6
2018-Oct-13 09:03N 55°57' W 004°52'1 9.7
2018-Oct-13 08:59N 55°57' W 004°53'0 0.3
2018-Oct-13 08:00N 55°57' W 004°53'1 1.0
2018-Oct-13 07:06N 55°57' W 004°51'1 9.5
2018-Oct-13 07:02N 55°57' W 004°52'0 9.6
2018-Oct-13 07:00N 55°57' W 004°53'0 0.4
2018-Oct-13 06:01N 55°57' W 004°52'0 9.5
2018-Oct-13 05:58N 55°57' W 004°53'1 2.8
2018-Oct-13 05:29N 55°58' W 004°51'1 0.0
2018-Oct-12 07:11N 55°58' W 004°49'210.4
2018-Oct-12 07:01N 55°57' W 004°52'010.4
2018-Oct-12 06:59N 55°57' W 004°53'2 2.5
2018-Oct-12 06:09N 55°58' W 004°50'2 9.5
2018-Oct-12 05:59N 55°57' W 004°52'2 0.2
2018-Oct-11 22:29N 55°58' W 004°49'3 7.6
2018-Oct-11 22:02N 55°57' W 004°55'110.8
2018-Oct-11 21:59N 55°57' W 004°54'2 3.2
2018-Oct-11 21:25N 55°58' W 004°51'3 7.1
2018-Oct-11 21:04N 55°57' W 004°55'310.3
2018-Oct-11 20:47N 55°58' W 004°50'1 1.3
2018-Oct-11 20:01N 55°57' W 004°52'010.6
2018-Oct-11 20:00N 55°57' W 004°52'1 0.6
2018-Oct-11 19:04N 55°57' W 004°51'010.6
2018-Oct-11 19:01N 55°57' W 004°52'110.4
2018-Oct-11 18:57N 55°57' W 004°53'1 0.4
2018-Oct-11 16:03N 55°58' W 004°52'110.3
2018-Oct-11 15:59N 55°57' W 004°53'1 1.1
2018-Oct-11 15:04N 55°58' W 004°51'110.5
2018-Oct-11 15:01N 55°58' W 004°52'010.7
2018-Oct-11 15:00N 55°57' W 004°52'0 0.2
2018-Oct-11 14:03N 55°58' W 004°52'0 0.4
2018-Oct-11 13:05N 55°57' W 004°51'110.3
2018-Oct-11 12:57N 55°57' W 004°54'1 1.6
2018-Oct-11 12:04N 55°58' W 004°51'210.5
2018-Oct-11 11:55N 55°57' W 004°54'2 2.9
2018-Oct-11 11:10N 55°58' W 004°50'110.0
2018-Oct-11 11:04N 55°57' W 004°52'1 9.8
2018-Oct-11 11:00N 55°57' W 004°53'0 0.3
2018-Oct-11 10:00N 55°57' W 004°53'1 0.8
2018-Oct-11 09:04N 55°57' W 004°51'0 9.9
2018-Oct-11 09:02N 55°57' W 004°52'1 9.9
2018-Oct-11 08:59N 55°57' W 004°53'2 2.6
2018-Oct-11 08:11N 55°58' W 004°49'210.3
2018-Oct-11 08:00N 55°57' W 004°53'1 0.8
2018-Oct-11 07:04N 55°57' W 004°51'110.3
2018-Oct-11 07:01N 55°57' W 004°52'010.3
2018-Oct-11 06:59N 55°57' W 004°53'2 2.7
2018-Oct-11 06:09N 55°58' W 004°49'1 9.7
2018-Oct-11 06:03N 55°58' W 004°51'110.3
2018-Oct-11 06:00N 55°57' W 004°52'1 1.5
2018-Oct-11 05:27N 55°58' W 004°51'1 0.1
2018-Oct-10 22:27N 55°58' W 004°49'4 7.9
2018-Oct-10 22:01N 55°57' W 004°55'0 8.3
2018-Oct-10 22:00N 55°57' W 004°55'2 3.2
2018-Oct-10 21:22N 55°57' W 004°52'2 6.5
2018-Oct-10 21:03N 55°57' W 004°55'0 6.6
2018-Oct-10 21:00N 55°57' W 004°55'2 2.8
2018-Oct-10 20:07N 55°58' W 004°51'1 9.6
2018-Oct-10 20:03N 55°57' W 004°52'1 9.7
2018-Oct-10 19:58N 55°57' W 004°53'2 2.1
2018-Oct-10 19:07N 55°58' W 004°50'111.1
2018-Oct-10 19:02N 55°57' W 004°52'010.7
2018-Oct-10 19:00N 55°57' W 004°52'1 1.1
2018-Oct-10 18:07N 55°57' W 004°51'110.2
2018-Oct-10 18:01N 55°57' W 004°52'0 9.8
2018-Oct-10 17:59N 55°57' W 004°53'0 0.4
2018-Oct-10 16:58N 55°57' W 004°53'0 0.2
2018-Oct-10 15:58N 55°57' W 004°54'1 1.5
2018-Oct-10 15:07N 55°57' W 004°52'2 9.2
2018-Oct-10 14:55N 55°57' W 004°55'2 3.0
2018-Oct-10 14:10N 55°58' W 004°51'2 9.7
2018-Oct-10 13:59N 55°57' W 004°54'1 1.5
2018-Oct-10 13:08N 55°57' W 004°51'1 9.1
2018-Oct-10 12:59N 55°57' W 004°53'1 1.0
2018-Oct-10 12:02N 55°57' W 004°52'1 9.8
2018-Oct-10 11:53N 55°57' W 004°55'  
Track history (hours):
 
Tides and Currents Weather Stations Pressure Air Temp Water Temp Dewpoint Dewpoint Depression Visibility Wind Speed Wind Dir Waves Ship Positions

Ali Cat

Operator: MRCC Clyde

Last reported at 2018-Oct-20 11:35 UTC. Time now 2018-Oct-20 12:59 UTC.
Position N 55°57' W 004°51'.

Length 19 m.

Type: Passenger vessel. MMSI: 235056506.

Date/timePositionNaut miles runAvg speedWind from/ knotsBaromVisibWave heightAir tempDewpointWater temp
2018-Oct-20 11:35N 55°57' W 004°51'110.2
2018-Oct-20 11:30N 55°57' W 004°53'0 0.3
2018-Oct-20 10:32N 55°57' W 004°52'110.5
2018-Oct-20 10:28N 55°57' W 004°53'0 0.4
2018-Oct-20 09:30N 55°57' W 004°53'1 0.9
2018-Oct-20 08:36N 55°58' W 004°51'210.4
2018-Oct-20 08:26N 55°57' W 004°54'0 0.1
2018-Oct-20 07:26N 55°57' W 004°54'1 1.5
2018-Oct-20 06:30N 55°57' W 004°52'1 0.1
2018-Oct-19 20:57N 55°58' W 004°50'2 4.9
2018-Oct-19 20:30N 55°57' W 004°54'2 2.6
2018-Oct-19 19:37N 55°58' W 004°50'210.5
2018-Oct-19 19:27N 55°57' W 004°53'0 0.3
2018-Oct-19 18:29N 55°57' W 004°53'1 1.6
2018-Oct-19 17:37N 55°58' W 004°50'110.7
2018-Oct-19 17:30N 55°57' W 004°52'1 1.7
2018-Oct-19 16:39N 55°58' W 004°50'210.7
2018-Oct-19 16:30N 55°57' W 004°52'0 1.0
2018-Oct-19 16:01N 55°58' W 004°52'0 0.6
2018-Oct-19 15:33N 55°57' W 004°51'111.1
2018-Oct-19 15:29N 55°57' W 004°53'1 0.9
2018-Oct-19 14:06N 55°58' W 004°51'0 0.2
2018-Oct-19 13:07N 55°58' W 004°50'110.8
2018-Oct-19 13:02N 55°58' W 004°52'111.3
2018-Oct-19 12:55N 55°57' W 004°54'1 1.0
2018-Oct-19 11:33N 55°58' W 004°52'111.6
2018-Oct-19 11:27N 55°57' W 004°54'1 2.6
2018-Oct-19 11:03N 55°58' W 004°52'0 0.4
2018-Oct-19 10:32N 55°58' W 004°52'011.8
2018-Oct-19 10:30N 55°57' W 004°52'0 0.0
2018-Oct-19 09:30N 55°57' W 004°52'1 1.4
2018-Oct-19 08:37N 55°58' W 004°50'211.1
2018-Oct-19 08:26N 55°57' W 004°54'0 0.0
2018-Oct-19 07:26N 55°57' W 004°54'2 2.0
2018-Oct-19 06:30N 55°58' W 004°51'0 0.0
2018-Oct-18 20:56N 55°58' W 004°51'2 4.1
2018-Oct-18 20:28N 55°57' W 004°54'1 1.0
2018-Oct-18 19:30N 55°57' W 004°53'2 1.8
2018-Oct-18 18:38N 55°58' W 004°50'210.4
2018-Oct-18 18:29N 55°57' W 004°53'2 1.9
2018-Oct-18 17:39N 55°58' W 004°50'210.5
2018-Oct-18 17:30N 55°57' W 004°53'1 1.2
2018-Oct-18 16:36N 55°58' W 004°51'210.5
2018-Oct-18 16:25N 55°57' W 004°54'1 0.8
2018-Oct-18 15:28N 55°57' W 004°53'0 0.1
2018-Oct-18 11:32N 55°57' W 004°52'110.1
2018-Oct-18 11:25N 55°57' W 004°54'2 4.1
2018-Oct-18 11:02N 55°58' W 004°52'1 1.4
2018-Oct-18 10:40N 55°58' W 004°51'2 9.9
2018-Oct-18 10:30N 55°57' W 004°53'2 3.1
2018-Oct-18 09:43N 55°58' W 004°49'2 9.9
2018-Oct-18 09:30N 55°57' W 004°53'1 0.6
2018-Oct-18 08:32N 55°57' W 004°52'010.0
2018-Oct-18 08:30N 55°57' W 004°52'1 0.6
2018-Oct-18 07:34N 55°57' W 004°51'110.0
2018-Oct-18 07:29N 55°57' W 004°53'2 2.3
2018-Oct-18 06:36N 55°58' W 004°49'110.0
2018-Oct-18 06:30N 55°57' W 004°51'1 2.6
2018-Oct-18 06:01N 55°57' W 004°53'110.6
2018-Oct-18 05:54N 55°58' W 004°51'0 0.0
2018-Oct-17 20:55N 55°57' W 004°51'0 0.1
2018-Oct-17 19:34N 55°57' W 004°51'110.5
2018-Oct-17 19:29N 55°57' W 004°53'1 0.8
2018-Oct-17 18:33N 55°57' W 004°51'110.3
2018-Oct-17 18:30N 55°57' W 004°52'1 1.6
2018-Oct-17 17:59N 55°58' W 004°51'1 1.9
2018-Oct-17 17:29N 55°57' W 004°53'1 1.5
2018-Oct-17 16:37N 55°58' W 004°51'110.3
2018-Oct-17 16:30N 55°57' W 004°53'0 0.5
2018-Oct-17 15:32N 55°57' W 004°52'110.7
2018-Oct-17 15:29N 55°57' W 004°53'0 0.1
2018-Oct-17 13:59N 55°57' W 004°53'1 0.9
2018-Oct-17 13:03N 55°57' W 004°51'111.1
2018-Oct-17 13:00N 55°57' W 004°52'0 0.3
2018-Oct-17 11:32N 55°58' W 004°52'010.6
2018-Oct-17 11:30N 55°57' W 004°52'1 1.1
2018-Oct-17 10:59N 55°58' W 004°52'1 2.1
2018-Oct-17 10:27N 55°57' W 004°53'1 2.8
2018-Oct-17 09:59N 55°58' W 004°51'1 1.8
2018-Oct-17 09:30N 55°57' W 004°53'1 1.2
2018-Oct-17 09:01N 55°58' W 004°52'010.6
2018-Oct-17 08:58N 55°58' W 004°51'1 0.1
2018-Oct-16 20:49N 55°57' W 004°53'1 0.5
2018-Oct-16 18:36N 55°58' W 004°51'211.3
2018-Oct-16 18:25N 55°57' W 004°54'2 2.0
2018-Oct-16 17:36N 55°58' W 004°51'211.3
2018-Oct-16 17:27N 55°57' W 004°54'1 0.6
2018-Oct-16 16:30N 55°57' W 004°53'2 0.4
2018-Oct-16 10:41N 55°58' W 004°49'211.4
2018-Oct-16 10:30N 55°57' W 004°53'1 1.2
2018-Oct-16 10:03N 55°58' W 004°52'1 1.9
2018-Oct-16 09:37N 55°58' W 004°51'210.3
2018-Oct-16 09:26N 55°57' W 004°54'2 2.8
2018-Oct-16 08:38N 55°58' W 004°50'210.0
2018-Oct-16 08:29N 55°57' W 004°53'1 1.2
2018-Oct-16 08:03N 55°58' W 004°53'1 1.2
2018-Oct-16 07:33N 55°57' W 004°52'010.1
2018-Oct-16 07:30N 55°57' W 004°53'1 1.6
2018-Oct-16 06:59N 55°58' W 004°51'0 0.9
2018-Oct-16 06:28N 55°57' W 004°52'1 3.0
2018-Oct-16 06:03N 55°57' W 004°54'1 0.1
2018-Oct-15 20:51N 55°57' W 004°52'2 5.0
2018-Oct-15 20:30N 55°57' W 004°55'3 3.1
2018-Oct-15 19:37N 55°58' W 004°50'210.4
2018-Oct-15 19:27N 55°57' W 004°53'1 2.7
2018-Oct-15 19:00N 55°58' W 004°51'1 2.0
2018-Oct-15 18:29N 55°57' W 004°53'2 1.6
2018-Oct-15 17:13N 55°58' W 004°49'210.0
2018-Oct-15 17:02N 55°57' W 004°52'010.0
2018-Oct-15 16:59N 55°57' W 004°53'1 1.1
2018-Oct-15 16:04N 55°57' W 004°51'010.3
2018-Oct-15 16:02N 55°57' W 004°52'010.1
2018-Oct-15 16:00N 55°57' W 004°53'1 1.0
2018-Oct-15 15:05N 55°57' W 004°51'010.2
2018-Oct-15 15:02N 55°57' W 004°52'210.0
2018-Oct-15 14:52N 55°57' W 004°55'2 1.9
2018-Oct-15 14:02N 55°57' W 004°52'110.0
2018-Oct-15 13:57N 55°57' W 004°54'1 0.7
2018-Oct-15 12:05N 55°57' W 004°51'010.1
2018-Oct-15 12:03N 55°57' W 004°52'0 9.9
2018-Oct-15 12:00N 55°57' W 004°53'1 2.0
2018-Oct-15 11:29N 55°58' W 004°51'1 2.7
2018-Oct-15 10:57N 55°57' W 004°53'2 3.0
2018-Oct-15 10:11N 55°58' W 004°49'110.5
2018-Oct-15 10:03N 55°57' W 004°52'110.4
2018-Oct-15 09:56N 55°57' W 004°54'2 2.9
2018-Oct-15 09:09N 55°58' W 004°50'210.2
2018-Oct-15 08:59N 55°57' W 004°53'0 0.1
2018-Oct-15 08:01N 55°57' W 004°53'1 9.6
2018-Oct-15 07:54N 55°57' W 004°54'3 3.5
2018-Oct-15 07:10N 55°58' W 004°50'1 9.8
2018-Oct-15 07:03N 55°57' W 004°52'1 9.8
2018-Oct-15 07:00N 55°57' W 004°53'1 1.1
2018-Oct-15 06:02N 55°57' W 004°51'1 9.7
2018-Oct-15 05:55N 55°57' W 004°53'1 0.1
2018-Oct-14 22:00N 55°57' W 004°51'1 0.6
2018-Oct-14 21:00N 55°57' W 004°52'1 1.5
2018-Oct-14 20:08N 55°58' W 004°50'110.2
2018-Oct-14 20:01N 55°57' W 004°52'010.0
2018-Oct-14 20:00N 55°57' W 004°52'0 0.1
2018-Oct-14 18:59N 55°57' W 004°53'1 0.9
2018-Oct-14 18:04N 55°57' W 004°51'010.2
2018-Oct-14 18:03N 55°57' W 004°51'0 9.9
2018-Oct-14 18:00N 55°57' W 004°52'1 1.7
2018-Oct-14 17:27N 55°58' W 004°51'1 2.2
2018-Oct-14 17:01N 55°57' W 004°52'1 9.8
2018-Oct-14 16:57N 55°57' W 004°54'0 0.4
2018-Oct-14 15:58N 55°57' W 004°53'2 1.8
2018-Oct-14 15:07N 55°58' W 004°51'110.6
2018-Oct-14 14:59N 55°57' W 004°53'0 0.5
2018-Oct-14 14:03N 55°57' W 004°52'010.8
2018-Oct-14 14:00N 55°57' W 004°53'1 0.4
2018-Oct-14 11:06N 55°58' W 004°51'110.2
2018-Oct-14 10:59N 55°57' W 004°53'1 1.9
2018-Oct-14 10:30N 55°58' W 004°51'1 1.3
2018-Oct-14 10:00N 55°57' W 004°52'1 0.9
2018-Oct-14 09:06N 55°58' W 004°51'110.5
2018-Oct-14 09:00N 55°57' W 004°53'1 1.2
2018-Oct-14 08:06N 55°58' W 004°51'110.6
2018-Oct-14 08:02N 55°57' W 004°52'110.3
2018-Oct-14 07:58N 55°57' W 004°53'1 0.2
2018-Oct-14 00:36N 55°57' W 004°51'112.1
2018-Oct-14 00:30N 55°57' W 004°53'1 0.6
2018-Oct-13 23:22N 55°57' W 004°52'2 6.6
2018-Oct-13 23:03N 55°57' W 004°55'0 5.6
2018-Oct-13 23:00N 55°57' W 004°55'2 3.6
2018-Oct-13 22:23N 55°58' W 004°51'2 6.6
2018-Oct-13 22:02N 55°57' W 004°55'011.1
2018-Oct-13 22:00N 55°57' W 004°54'1 2.2
2018-Oct-13 21:21N 55°57' W 004°52'2 6.6
2018-Oct-13 21:02N 55°57' W 004°55'0 3.7
2018-Oct-13 21:00N 55°57' W 004°55'1 1.0
2018-Oct-13 19:56N 55°57' W 004°53'0 0.2
2018-Oct-13 18:58N 55°57' W 004°53'1 0.9
2018-Oct-13 18:03N 55°57' W 004°52'110.1
2018-Oct-13 17:57N 55°57' W 004°53'1 1.0
2018-Oct-13 17:03N 55°57' W 004°52'0 9.9
2018-Oct-13 17:00N 55°57' W 004°53'0 0.3
2018-Oct-13 15:58N 55°57' W 004°53'1 1.7
2018-Oct-13 15:06N 55°57' W 004°51'2 9.8
2018-Oct-13 14:55N 55°57' W 004°54'1 1.7
2018-Oct-13 14:03N 55°57' W 004°51'110.1
2018-Oct-13 13:59N 55°57' W 004°53'0 0.4
2018-Oct-13 13:02N 55°57' W 004°52'0 9.9
2018-Oct-13 13:00N 55°57' W 004°53'1 1.2
2018-Oct-13 12:07N 55°58' W 004°51'2 9.5
2018-Oct-13 11:56N 55°57' W 004°54'3 3.5
2018-Oct-13 11:12N 55°58' W 004°49'2 9.5
2018-Oct-13 10:58N 55°57' W 004°53'2 2.6
2018-Oct-13 10:11N 55°58' W 004°50'110.0
2018-Oct-13 10:03N 55°57' W 004°52'210.0
2018-Oct-13 09:54N 55°57' W 004°54'1 1.6
2018-Oct-13 09:03N 55°57' W 004°52'1 9.7
2018-Oct-13 08:59N 55°57' W 004°53'0 0.3
2018-Oct-13 08:00N 55°57' W 004°53'1 1.0
2018-Oct-13 07:06N 55°57' W 004°51'1 9.5
2018-Oct-13 07:02N 55°57' W 004°52'0 9.6
2018-Oct-13 07:00N 55°57' W 004°53'0 0.4
2018-Oct-13 06:01N 55°57' W 004°52'0 9.5
2018-Oct-13 05:58N 55°57' W 004°53'1 2.8
2018-Oct-13 05:29N 55°58' W 004°51'1 0.0
2018-Oct-12 07:11N 55°58' W 004°49'210.4
2018-Oct-12 07:01N 55°57' W 004°52'010.4
2018-Oct-12 06:59N 55°57' W 004°53'2 2.5
2018-Oct-12 06:09N 55°58' W 004°50'2 9.5
2018-Oct-12 05:59N 55°57' W 004°52'2 0.2
2018-Oct-11 22:29N 55°58' W 004°49'3 7.6
2018-Oct-11 22:02N 55°57' W 004°55'110.8
2018-Oct-11 21:59N 55°57' W 004°54'2 3.2
2018-Oct-11 21:25N 55°58' W 004°51'3 7.1
2018-Oct-11 21:04N 55°57' W 004°55'310.3
2018-Oct-11 20:47N 55°58' W 004°50'1 1.3
2018-Oct-11 20:01N 55°57' W 004°52'010.6
2018-Oct-11 20:00N 55°57' W 004°52'1 0.6
2018-Oct-11 19:04N 55°57' W 004°51'010.6
2018-Oct-11 19:01N 55°57' W 004°52'110.4
2018-Oct-11 18:57N 55°57' W 004°53'1 0.4
2018-Oct-11 16:03N 55°58' W 004°52'110.3
2018-Oct-11 15:59N 55°57' W 004°53'1 1.1
2018-Oct-11 15:04N 55°58' W 004°51'110.5
2018-Oct-11 15:01N 55°58' W 004°52'010.7
2018-Oct-11 15:00N 55°57' W 004°52'0 0.2
2018-Oct-11 14:03N 55°58' W 004°52'0 0.4
2018-Oct-11 13:05N 55°57' W 004°51'110.3
2018-Oct-11 12:57N 55°57' W 004°54'1 1.6
2018-Oct-11 12:04N 55°58' W 004°51'210.5
2018-Oct-11 11:55N 55°57' W 004°54'2 2.9
2018-Oct-11 11:10N 55°58' W 004°50'110.0
2018-Oct-11 11:04N 55°57' W 004°52'1 9.8
2018-Oct-11 11:00N 55°57' W 004°53'0 0.3
2018-Oct-11 10:00N 55°57' W 004°53'1 0.8
2018-Oct-11 09:04N 55°57' W 004°51'0 9.9
2018-Oct-11 09:02N 55°57' W 004°52'1 9.9
2018-Oct-11 08:59N 55°57' W 004°53'2 2.6
2018-Oct-11 08:11N 55°58' W 004°49'210.3
2018-Oct-11 08:00N 55°57' W 004°53'1 0.8
2018-Oct-11 07:04N 55°57' W 004°51'110.3
2018-Oct-11 07:01N 55°57' W 004°52'010.3
2018-Oct-11 06:59N 55°57' W 004°53'2 2.7
2018-Oct-11 06:09N 55°58' W 004°49'1 9.7
2018-Oct-11 06:03N 55°58' W 004°51'110.3
2018-Oct-11 06:00N 55°57' W 004°52'1 1.5
2018-Oct-11 05:27N 55°58' W 004°51'1 0.1
2018-Oct-10 22:27N 55°58' W 004°49'4 7.9
2018-Oct-10 22:01N 55°57' W 004°55'0 8.3
2018-Oct-10 22:00N 55°57' W 004°55'2 3.2
2018-Oct-10 21:22N 55°57' W 004°52'2 6.5
2018-Oct-10 21:03N 55°57' W 004°55'0 6.6
2018-Oct-10 21:00N 55°57' W 004°55'2 2.8
2018-Oct-10 20:07N 55°58' W 004°51'1 9.6
2018-Oct-10 20:03N 55°57' W 004°52'1 9.7
2018-Oct-10 19:58N 55°57' W 004°53'2 2.1
2018-Oct-10 19:07N 55°58' W 004°50'111.1
2018-Oct-10 19:02N 55°57' W 004°52'010.7
2018-Oct-10 19:00N 55°57' W 004°52'1 1.1
2018-Oct-10 18:07N 55°57' W 004°51'110.2
2018-Oct-10 18:01N 55°57' W 004°52'0 9.8
2018-Oct-10 17:59N 55°57' W 004°53'0 0.4
2018-Oct-10 16:58N 55°57' W 004°53'0 0.2
2018-Oct-10 15:58N 55°57' W 004°54'1 1.5
2018-Oct-10 15:07N 55°57' W 004°52'2 9.2
2018-Oct-10 14:55N 55°57' W 004°55'2 3.0
2018-Oct-10 14:10N 55°58' W 004°51'2 9.7
2018-Oct-10 13:59N 55°57' W 004°54'1 1.5
2018-Oct-10 13:08N 55°57' W 004°51'1 9.1
2018-Oct-10 12:59N 55°57' W 004°53'1 1.0
2018-Oct-10 12:02N 55°57' W 004°52'1 9.8
2018-Oct-10 11:53N 55°57' W 004°55'  

Dump ship's entire track history